Time;durP1;ratioP1;P1;durP2;ratioP2;P2;SDS_P1;SDS_P2;PMS_P1;PMS_P2;Temp;Humidity;BMP_temperature;BMP_pressure;BME280_temperature;BME280_humidity;BME280_pressure;Samples;Min_cycle;Max_cycle;Signal;HPM_P1;HPM_P2
2022/08/24 00:02:11;;;;;;;24.67;22.27;;;20.90;99.90;;;;;;5033585;28;20045;-78
2022/08/24 00:04:37;;;;;;;24.45;22.10;;;20.80;99.90;;;;;;5033404;28;20052;-77
2022/08/24 00:07:03;;;;;;;24.43;22.20;;;20.80;99.90;;;;;;5033423;28;20128;-78
2022/08/24 00:09:30;;;;;;;27.30;24.60;;;20.80;99.90;;;;;;5033527;28;20041;-77
2022/08/24 00:11:56;;;;;;;28.83;25.80;;;20.80;99.90;;;;;;5035966;28;20060;-77
2022/08/24 00:14:22;;;;;;;27.73;25.07;;;20.80;99.90;;;;;;5037035;28;20501;-78
2022/08/24 00:16:48;;;;;;;30.70;27.70;;;20.80;99.90;;;;;;5036278;28;20374;-77
2022/08/24 00:19:15;;;;;;;27.27;24.77;;;20.60;99.90;;;;;;5037316;28;20047;-77
2022/08/24 00:21:41;;;;;;;29.27;26.48;;;20.50;99.90;;;;;;5037354;28;20048;-78
2022/08/24 00:24:07;;;;;;;28.45;25.80;;;20.60;99.90;;;;;;5036328;28;20053;-77
2022/08/24 00:26:34;;;;;;;30.35;27.35;;;20.60;99.90;;;;;;5036978;28;20497;-77
2022/08/24 00:29:00;;;;;;;30.80;27.83;;;20.60;99.90;;;;;;5037164;28;20037;-77
2022/08/24 00:31:26;;;;;;;32.53;29.15;;;20.50;99.90;;;;;;5037221;28;20182;-77
2022/08/24 00:33:51;;;;;;;32.80;29.50;;;20.50;99.90;;;;;;5036801;28;20046;-78
2022/08/24 00:36:19;;;;;;;31.97;28.63;;;20.50;99.90;;;;;;5019559;28;20179;-77
2022/08/24 00:38:45;;;;;;;32.28;29.15;;;20.40;99.90;;;;;;5036968;28;20050;-77
2022/08/24 00:41:13;;;;;;;34.80;31.40;;;20.40;99.90;;;;;;5036776;28;20072;-78
2022/08/24 00:43:38;;;;;;;33.25;30.10;;;20.30;99.90;;;;;;5036897;28;20049;-77
2022/08/24 00:46:23;;;;;;;34.13;30.73;;;20.30;99.90;;;;;;5036799;28;20044;-77
2022/08/24 00:48:54;;;;;;;33.92;30.65;;;20.30;99.90;;;;;;5036839;28;20138;-78
2022/08/24 00:51:26;;;;;;;32.92;29.85;;;20.30;99.90;;;;;;5037169;28;20378;-77
2022/08/24 00:54:06;;;;;;;34.25;31.05;;;20.20;99.90;;;;;;5035488;28;20057;-77
2022/08/24 00:56:38;;;;;;;31.20;28.35;;;20.20;99.90;;;;;;5035655;28;20050;-77
2022/08/24 00:59:17;;;;;;;31.45;28.65;;;20.20;99.90;;;;;;5035485;28;20217;-77
2022/08/24 01:01:43;;;;;;;34.60;31.30;;;20.10;99.90;;;;;;5037088;28;20049;-77
2022/08/24 01:04:18;;;;;;;33.25;30.05;;;20.20;99.90;;;;;;5036526;28;20049;-77
2022/08/24 01:06:45;;;;;;;33.78;30.77;;;20.10;99.90;;;;;;5036690;28;20037;-77
2022/08/24 01:09:10;;;;;;;33.60;30.45;;;19.90;99.90;;;;;;5036476;28;20084;-78
2022/08/24 01:11:36;;;;;;;33.20;29.83;;;20.00;99.90;;;;;;5036382;28;20045;-77
2022/08/24 01:14:03;;;;;;;33.47;30.27;;;20.00;99.90;;;;;;5036514;28;20057;-77
2022/08/24 01:19:24;;;;;;;36.60;32.28;;;19.90;99.90;;;;;;5036454;28;20381;-77
2022/08/24 01:22:08;;;;;;;36.35;32.83;;;19.90;99.90;;;;;;5036102;28;20054;-77
2022/08/24 01:24:35;;;;;;;34.70;31.50;;;19.90;99.90;;;;;;5035941;28;20052;-78
2022/08/24 01:27:01;;;;;;;34.95;31.67;;;19.80;99.90;;;;;;5036379;28;20033;-77
2022/08/24 01:29:30;;;;;;;36.38;33.00;;;19.70;99.90;;;;;;5036403;28;20049;-77
2022/08/24 01:31:56;;;;;;;35.22;31.83;;;19.70;99.90;;;;;;5034829;28;20049;-77
2022/08/24 01:34:22;;;;;;;37.38;33.70;;;19.70;99.90;;;;;;5035907;28;20049;-77
2022/08/24 01:36:53;;;;;;;35.63;32.37;;;19.60;99.90;;;;;;5035672;28;20048;-77
2022/08/24 01:39:21;;;;;;;35.83;32.47;;;19.60;99.90;;;;;;5036459;28;20037;-77
2022/08/24 01:41:47;;;;;;;35.15;31.90;;;19.50;99.90;;;;;;5034640;28;20400;-77
2022/08/24 01:44:13;;;;;;;38.92;35.22;;;19.50;99.90;;;;;;5035970;28;20049;-77
2022/08/24 01:46:43;;;;;;;36.75;33.35;;;19.50;99.90;;;;;;5035815;28;20092;-77
2022/08/24 01:49:09;;;;;;;36.70;33.30;;;19.50;99.90;;;;;;5035646;28;20049;-77
2022/08/24 01:51:35;;;;;;;36.73;33.23;;;19.50;99.90;;;;;;5036125;28;20053;-78
2022/08/24 01:54:01;;;;;;;38.00;34.33;;;19.50;99.90;;;;;;5035468;28;20493;-77
2022/08/24 01:56:29;;;;;;;35.80;32.17;;;19.50;99.90;;;;;;5035533;28;20038;-77
2022/08/24 01:58:56;;;;;;;34.13;30.92;;;19.40;99.90;;;;;;5035529;28;20049;-77
2022/08/24 02:01:22;;;;;;;33.03;30.00;;;19.50;99.90;;;;;;5035445;28;20489;-77
2022/08/24 02:03:48;;;;;;;35.33;31.73;;;19.30;99.90;;;;;;5035345;28;20049;-77
2022/08/24 02:06:17;;;;;;;34.13;30.83;;;19.40;99.90;;;;;;5035078;28;20045;-77
2022/08/24 02:08:43;;;;;;;32.60;29.45;;;19.30;99.90;;;;;;5034392;28;20081;-77
2022/08/24 02:11:09;;;;;;;30.83;28.07;;;19.40;99.90;;;;;;5034375;28;20155;-77
2022/08/24 02:13:37;;;;;;;31.77;28.67;;;19.30;99.90;;;;;;5035238;28;20112;-77
2022/08/24 02:16:04;;;;;;;30.70;27.95;;;19.30;99.90;;;;;;5035189;28;20037;-77
2022/08/24 02:18:30;;;;;;;30.95;27.85;;;19.30;99.90;;;;;;5034154;28;20051;-77
2022/08/24 02:20:56;;;;;;;31.23;28.43;;;19.30;99.90;;;;;;5035156;28;20401;-77
2022/08/24 02:23:22;;;;;;;29.08;26.48;;;19.20;99.90;;;;;;5035056;28;20053;-77
2022/08/24 02:25:47;;;;;;;28.93;26.10;;;19.20;99.90;;;;;;5034943;28;20044;-77
2022/08/24 02:28:13;;;;;;;28.97;26.20;;;19.20;99.90;;;;;;5017503;28;20041;-77
2022/08/24 02:30:39;;;;;;;30.73;27.83;;;19.20;99.90;;;;;;5034746;28;20542;-78
2022/08/24 02:33:06;;;;;;;28.02;25.40;;;19.10;99.90;;;;;;5033582;28;20493;-78
2022/08/24 02:35:33;;;;;;;28.23;25.63;;;19.10;99.90;;;;;;5033754;28;20052;-78
2022/08/24 02:37:59;;;;;;;29.30;26.60;;;19.10;99.90;;;;;;5034755;28;20071;-78
2022/08/24 02:40:25;;;;;;;27.03;24.50;;;19.00;99.90;;;;;;5034756;28;20114;-78
2022/08/24 02:42:51;;;;;;;26.60;23.92;;;19.00;99.90;;;;;;5034671;28;20120;-78
2022/08/24 02:45:17;;;;;;;27.83;25.30;;;19.00;99.90;;;;;;5034776;28;20184;-78
2022/08/24 02:47:42;;;;;;;26.27;23.97;;;19.00;99.90;;;;;;5034486;28;20034;-78
2022/08/24 02:50:13;;;;;;;27.90;25.20;;;18.90;99.90;;;;;;5034527;28;20049;-77
2022/08/24 02:52:40;;;;;;;28.92;26.33;;;18.90;99.90;;;;;;5034563;28;20046;-78
2022/08/24 02:55:10;;;;;;;27.23;24.63;;;18.80;99.90;;;;;;5034393;28;20404;-78
2022/08/24 02:57:35;;;;;;;26.85;24.45;;;18.80;99.90;;;;;;5034380;28;20103;-77
2022/08/24 03:00:01;;;;;;;26.80;24.40;;;18.80;99.90;;;;;;5034331;28;20525;-77
2022/08/24 03:02:27;;;;;;;27.63;25.13;;;18.80;99.90;;;;;;5034874;28;20045;-77
2022/08/24 03:04:52;;;;;;;27.00;24.57;;;18.80;99.90;;;;;;5034194;28;20683;-78
2022/08/24 03:07:18;;;;;;;26.73;24.33;;;18.80;99.90;;;;;;5034365;28;20045;-78
2022/08/24 03:09:44;;;;;;;26.63;24.20;;;18.70;99.90;;;;;;5034451;28;20041;-78
2022/08/24 03:12:10;;;;;;;28.60;25.97;;;18.70;99.90;;;;;;5034158;28;20091;-77
2022/08/24 03:14:36;;;;;;;29.48;26.63;;;18.70;99.90;;;;;;5034174;28;20064;-77
2022/08/24 03:17:01;;;;;;;29.40;26.70;;;18.70;99.90;;;;;;5034055;28;20037;-77
2022/08/24 03:19:27;;;;;;;29.20;26.60;;;18.70;99.90;;;;;;5034128;28;20124;-77
2022/08/24 03:21:53;;;;;;;29.53;26.93;;;18.60;99.90;;;;;;5034025;28;20101;-77
2022/08/24 03:24:19;;;;;;;28.07;25.43;;;18.60;99.90;;;;;;5034031;28;20053;-77
2022/08/24 03:26:44;;;;;;;28.52;25.73;;;18.50;99.90;;;;;;5034484;28;20049;-77
2022/08/24 03:29:11;;;;;;;29.77;27.13;;;18.60;99.90;;;;;;5033836;28;20049;-77
2022/08/24 03:31:36;;;;;;;29.67;26.98;;;18.50;99.90;;;;;;5033855;28;20398;-77
2022/08/24 03:34:02;;;;;;;30.70;27.63;;;18.50;99.90;;;;;;5033894;28;20041;-77
2022/08/24 03:36:28;;;;;;;30.48;27.48;;;18.50;99.90;;;;;;5034008;28;20168;-77
2022/08/24 03:38:53;;;;;;;32.07;29.00;;;18.40;99.90;;;;;;5033766;28;20516;-77
2022/08/24 03:41:19;;;;;;;33.07;29.93;;;18.40;99.90;;;;;;5033770;28;20057;-77
2022/08/24 03:43:45;;;;;;;30.97;28.13;;;18.40;99.90;;;;;;5033768;28;20053;-77
2022/08/24 03:46:11;;;;;;;31.17;28.37;;;18.40;99.90;;;;;;5033201;28;20458;-77
2022/08/24 03:48:38;;;;;;;30.38;27.63;;;18.30;99.90;;;;;;5034086;28;20120;-77
2022/08/24 03:51:05;;;;;;;29.50;26.63;;;18.30;99.90;;;;;;5032480;28;20405;-77
2022/08/24 03:53:32;;;;;;;28.45;25.77;;;18.30;99.90;;;;;;5033856;28;20045;-77
2022/08/24 03:55:57;;;;;;;32.30;29.20;;;18.20;99.90;;;;;;5033807;28;20128;-77
2022/08/24 03:58:23;;;;;;;35.20;31.70;;;18.20;99.90;;;;;;5033612;28;20463;-77
2022/08/24 04:00:48;;;;;;;35.77;32.23;;;18.10;99.90;;;;;;5032556;28;20042;-77
2022/08/24 04:03:14;;;;;;;36.50;33.00;;;18.10;99.90;;;;;;5032622;28;20059;-77
2022/08/24 04:05:41;;;;;;;35.90;32.33;;;18.10;99.90;;;;;;5033479;28;20478;-77
2022/08/24 04:08:07;;;;;;;34.75;31.67;;;18.10;99.90;;;;;;5033545;28;20053;-77
2022/08/24 04:10:33;;;;;;;35.70;32.40;;;18.00;99.90;;;;;;5033486;28;20132;-77
2022/08/24 04:13:00;;;;;;;34.08;30.92;;;18.10;99.90;;;;;;5033333;28;20296;-77
2022/08/24 04:15:27;;;;;;;34.45;31.33;;;18.10;99.90;;;;;;5033416;28;20050;-77
2022/08/24 04:17:52;;;;;;;33.70;30.45;;;18.10;99.90;;;;;;5033431;28;20135;-77
2022/08/24 04:20:18;;;;;;;33.03;29.97;;;18.00;99.90;;;;;;5033391;28;20108;-77
2022/08/24 04:22:44;;;;;;;33.60;30.43;;;18.00;99.90;;;;;;5033362;28;20080;-77
2022/08/24 04:25:10;;;;;;;33.50;30.27;;;18.00;99.90;;;;;;5033367;28;20127;-77
2022/08/24 04:27:37;;;;;;;30.98;28.10;;;18.00;99.90;;;;;;5032088;28;20402;-77
2022/08/24 04:30:03;;;;;;;;;;;18.00;99.90;;;;;;5033717;28;20440;-77
2022/08/24 04:32:31;;;;;;;31.70;28.88;;;17.90;99.90;;;;;;5033270;28;19924;-77
2022/08/24 04:34:57;;;;;;;34.25;30.95;;;18.00;99.90;;;;;;5033244;28;20049;-77
2022/08/24 04:37:24;;;;;;;33.58;30.20;;;17.90;99.90;;;;;;5033265;28;20139;-77
2022/08/24 04:39:50;;;;;;;33.55;30.25;;;17.90;99.90;;;;;;5033184;28;20049;-77
2022/08/24 04:42:16;;;;;;;34.03;30.73;;;18.00;99.90;;;;;;5032128;28;20132;-77
2022/08/24 04:44:42;;;;;;;32.83;29.85;;;17.90;99.90;;;;;;5033067;28;20124;-77
2022/08/24 04:47:08;;;;;;;33.43;30.23;;;18.00;99.90;;;;;;5033068;28;20042;-77
2022/08/24 04:49:34;;;;;;;32.92;29.80;;;18.00;99.90;;;;;;5033080;28;20038;-77
2022/08/24 04:52:00;;;;;;;32.92;29.83;;;17.80;99.90;;;;;;5031935;28;20052;-77
2022/08/24 04:54:26;;;;;;;32.57;29.57;;;18.00;99.90;;;;;;5016047;28;20037;-77
2022/08/24 04:56:52;;;;;;;32.47;29.50;;;18.00;99.90;;;;;;5033219;28;20088;-77
2022/08/24 04:59:18;;;;;;;33.60;30.40;;;18.00;99.90;;;;;;5035445;28;20088;-77
2022/08/24 05:01:43;;;;;;;32.50;29.50;;;18.00;99.90;;;;;;5036652;28;20472;-77
2022/08/24 05:04:09;;;;;;;33.17;30.07;;;18.00;99.90;;;;;;5036531;28;20049;-77
2022/08/24 05:06:35;;;;;;;32.33;29.37;;;18.00;99.90;;;;;;5036785;28;20516;-77
2022/08/24 05:09:02;;;;;;;31.07;28.07;;;18.00;99.90;;;;;;5036530;28;20389;-77
2022/08/24 05:11:28;;;;;;;31.38;28.38;;;17.90;99.90;;;;;;5036384;28;20053;-77
2022/08/24 05:13:55;;;;;;;32.63;29.53;;;17.90;99.90;;;;;;5036372;28;20058;-77
2022/08/24 05:16:22;;;;;;;30.63;27.92;;;17.90;99.90;;;;;;5036337;28;20426;-77
2022/08/24 05:18:47;;;;;;;32.20;29.30;;;17.90;99.90;;;;;;5036292;28;20051;-77
2022/08/24 05:21:17;;;;;;;31.77;28.50;;;18.00;99.90;;;;;;5036302;28;20049;-77
2022/08/24 05:23:43;;;;;;;31.05;28.25;;;18.00;99.90;;;;;;5036165;28;20057;-77
2022/08/24 05:26:24;;;;;;;31.80;28.70;;;18.10;99.90;;;;;;5036223;28;20048;-79
2022/08/24 05:28:54;;;;;;;32.22;29.33;;;18.10;99.90;;;;;;5036117;28;20482;-78
2022/08/24 05:31:22;;;;;;;31.20;28.33;;;18.10;99.90;;;;;;5035927;28;20481;-78
2022/08/24 05:33:49;;;;;;;30.52;27.60;;;18.10;99.90;;;;;;5036046;28;20049;-78
2022/08/24 05:36:21;;;;;;;29.85;27.15;;;18.10;99.90;;;;;;5036159;28;20048;-78
2022/08/24 05:38:48;;;;;;;31.08;28.13;;;18.20;99.90;;;;;;5036112;28;20118;-78
2022/08/24 05:41:15;;;;;;;;;;;18.20;99.90;;;;;;5036303;28;20099;-78
2022/08/24 05:43:40;;;;;;;30.30;27.48;;;18.30;99.90;;;;;;5035855;28;19921;-78
2022/08/24 05:46:06;;;;;;;30.70;27.60;;;18.30;99.90;;;;;;5036018;28;20359;-78
2022/08/24 05:48:34;;;;;;;31.20;28.20;;;18.50;99.90;;;;;;5035774;28;20132;-78
2022/08/24 05:51:01;;;;;;;31.85;28.75;;;18.30;99.90;;;;;;5035715;28;20068;-78
2022/08/24 05:53:27;;;;;;;30.20;27.50;;;18.40;99.90;;;;;;5035916;28;20037;-78
2022/08/24 05:55:53;;;;;;;29.73;26.93;;;18.40;99.90;;;;;;5035488;28;20034;-78
2022/08/24 05:58:19;;;;;;;31.77;28.87;;;18.40;99.90;;;;;;5035644;28;20041;-78
2022/08/24 06:00:45;;;;;;;33.70;30.48;;;18.40;99.90;;;;;;5034308;28;20137;-78
2022/08/24 06:03:13;;;;;;;35.53;32.25;;;18.50;99.90;;;;;;5035516;28;20042;-78
2022/08/24 06:05:43;;;;;;;35.42;31.90;;;18.50;99.90;;;;;;5035275;28;20050;-78
2022/08/24 06:08:09;;;;;;;36.03;32.63;;;18.60;99.90;;;;;;5035328;28;20482;-78
2022/08/24 06:10:43;;;;;;;35.17;32.00;;;18.60;99.90;;;;;;5035053;28;20045;-78
2022/08/24 06:13:10;;;;;;;35.13;31.75;;;17.80;99.90;;;;;;5033861;28;20061;-78
2022/08/24 06:15:37;;;;;;;38.53;34.53;;;18.80;99.90;;;;;;5035567;28;20044;-78
2022/08/24 06:18:04;;;;;;;40.88;36.85;;;18.80;99.90;;;;;;5035113;28;20072;-78
2022/08/24 06:20:30;;;;;;;39.13;35.38;;;18.90;99.90;;;;;;5035071;28;20052;-78
2022/08/24 06:22:55;;;;;;;42.07;37.77;;;19.00;99.90;;;;;;5034976;28;20041;-78
2022/08/24 06:28:05;;;;;;;46.30;41.40;;;19.20;99.90;;;;;;5034181;28;20464;-78
2022/08/24 06:30:31;;;;;;;50.97;45.77;;;19.40;99.90;;;;;;5035461;28;20132;-78
2022/08/24 06:33:01;;;;;;;45.83;41.10;;;19.60;99.90;;;;;;5034866;28;20383;-78
2022/08/24 06:35:27;;;;;;;51.58;46.03;;;19.70;99.90;;;;;;5034804;28;20092;-78
2022/08/24 06:37:53;;;;;;;51.87;46.33;;;19.90;99.90;;;;;;5034502;28;20041;-78
2022/08/24 06:40:21;;;;;;;52.23;46.93;;;20.10;99.90;;;;;;5034837;28;20124;-78
2022/08/24 06:42:47;;;;;;;50.22;45.08;;;20.40;99.90;;;;;;5017541;28;20064;-78
2022/08/24 06:45:13;;;;;;;49.63;44.43;;;20.50;99.90;;;;;;5034642;28;20049;-78
2022/08/24 06:47:40;;;;;;;53.00;46.63;;;20.70;99.90;;;;;;5034628;28;20045;-79
2022/08/24 06:50:07;;;;;;;53.08;46.95;;;20.70;99.90;;;;;;5034230;28;20552;-79
2022/08/24 06:52:34;;;;;;;51.17;45.80;;;21.00;99.90;;;;;;5034213;28;20056;-79
2022/08/24 06:55:00;;;;;;;50.63;44.78;;;21.20;99.90;;;;;;5034888;28;20103;-77
2022/08/24 06:57:25;;;;;;;50.78;45.75;;;21.30;99.90;;;;;;5034728;28;20037;-79
2022/08/24 06:59:51;;;;;;;49.77;44.67;;;21.50;99.90;;;;;;5034467;28;20083;-78
2022/08/24 07:02:18;;;;;;;48.17;43.33;;;21.60;99.90;;;;;;5034091;28;20041;-79
2022/08/24 07:04:44;;;;;;;49.17;43.88;;;21.80;99.90;;;;;;5016907;28;20349;-79
2022/08/24 07:07:10;;;;;;;45.50;41.00;;;21.80;99.90;;;;;;5016924;28;20041;-79
2022/08/24 07:09:36;;;;;;;44.88;40.20;;;21.90;99.90;;;;;;5034195;28;20045;-79
2022/08/24 07:12:02;;;;;;;44.17;39.93;;;22.10;99.90;;;;;;5032984;28;20056;-79
2022/08/24 07:14:28;;;;;;;42.63;38.28;;;22.30;99.90;;;;;;5034099;28;20743;-78
2022/08/24 07:16:54;;;;;;;39.83;35.83;;;22.40;99.90;;;;;;5033850;28;20049;-78
2022/08/24 07:19:20;;;;;;;38.93;35.33;;;22.50;99.90;;;;;;5034143;28;20284;-79
2022/08/24 07:21:45;;;;;;;39.72;35.92;;;22.60;99.90;;;;;;5033595;28;20478;-79
2022/08/24 07:24:11;;;;;;;40.80;36.60;;;22.80;99.90;;;;;;5033897;28;20052;-79
2022/08/24 07:26:38;;;;;;;36.87;33.17;;;22.90;99.90;;;;;;5034054;28;20042;-79
2022/08/24 07:29:08;;;;;;;36.40;32.80;;;23.00;99.90;;;;;;5032981;28;20037;-79
2022/08/24 07:31:36;;;;;;;34.95;31.55;;;23.20;99.90;;;;;;5033533;28;20107;-79
2022/08/24 07:34:04;;;;;;;34.08;30.63;;;23.30;99.90;;;;;;5033706;28;20057;-79
2022/08/24 07:36:30;;;;;;;32.33;28.83;;;23.50;99.90;;;;;;5032513;28;20500;-79
2022/08/24 07:38:56;;;;;;;37.60;30.87;;;23.60;99.90;;;;;;5033771;28;20045;-79
2022/08/24 07:41:24;;;;;;;34.60;31.20;;;23.60;99.90;;;;;;5032746;28;20775;-79
2022/08/24 07:43:51;;;;;;;31.50;28.45;;;23.70;99.90;;;;;;5034015;28;20124;-79
2022/08/24 07:46:16;;;;;;;31.17;27.55;;;23.80;99.90;;;;;;5032823;28;20037;-79
2022/08/24 07:48:42;;;;;;;29.20;26.17;;;23.90;99.90;;;;;;5033581;28;20136;-79
2022/08/24 07:51:16;;;;;;;27.35;24.55;;;24.00;99.90;;;;;;5033720;28;20037;-79
2022/08/24 07:53:42;;;;;;;32.17;24.48;;;24.10;99.90;;;;;;5033611;28;20049;-79
2022/08/24 07:56:09;;;;;;;25.90;23.00;;;24.20;99.90;;;;;;5033593;28;20045;-78
2022/08/24 07:58:35;;;;;;;;;;;24.40;99.90;;;;;;5016328;28;20056;-78
2022/08/24 08:01:03;;;;;;;24.27;20.48;;;24.50;99.90;;;;;;5032322;28;19921;-79
2022/08/24 08:03:30;;;;;;;20.98;18.65;;;24.60;99.90;;;;;;5033626;28;20060;-79
2022/08/24 08:05:57;;;;;;;24.65;17.60;;;24.70;99.90;;;;;;5033356;28;20128;-79
2022/08/24 08:08:24;;;;;;;22.70;18.08;;;24.80;99.90;;;;;;5033361;28;20050;-79
2022/08/24 08:10:50;;;;;;;23.50;16.45;;;24.80;99.90;;;;;;5015953;28;20136;-79
2022/08/24 08:13:17;;;;;;;21.08;16.02;;;24.90;99.90;;;;;;5033468;28;20136;-79
2022/08/24 08:15:43;;;;;;;20.17;15.75;;;25.00;99.90;;;;;;5033447;28;20132;-79
2022/08/24 08:18:09;;;;;;;21.75;18.17;;;25.10;99.90;;;;;;5033487;28;20121;-79
2022/08/24 08:20:37;;;;;;;23.48;16.98;;;25.20;99.90;;;;;;5033416;28;20049;-79
2022/08/24 08:25:53;;;;;;;19.95;17.08;;;25.50;99.90;;;;;;5033352;28;20049;-79
2022/08/24 08:28:20;;;;;;;19.23;16.73;;;25.60;99.90;;;;;;5033345;28;20041;-79
2022/08/24 08:30:45;;;;;;;19.35;17.27;;;25.60;99.90;;;;;;5033766;28;20046;-79
2022/08/24 08:33:11;;;;;;;17.97;15.90;;;25.70;99.90;;;;;;5035197;28;20145;-79
2022/08/24 08:35:38;;;;;;;21.42;16.27;;;25.70;99.90;;;;;;5037178;28;20467;-78
2022/08/24 08:38:05;;;;;;;22.58;17.85;;;25.90;99.90;;;;;;5037175;28;20045;-79
2022/08/24 08:40:43;;;;;;;20.98;16.83;;;26.00;99.90;;;;;;5037160;28;20053;-79
2022/08/24 08:43:35;;;;;;;21.20;15.77;;;26.10;99.90;;;;;;5036873;28;20535;-79
2022/08/24 08:46:15;;;;;;;17.98;12.75;;;26.20;99.90;;;;;;5037106;28;20042;-79
2022/08/24 08:49:04;;;;;;;14.82;12.02;;;26.30;99.90;;;;;;5037007;28;20048;-79
2022/08/24 08:51:45;;;;;;;12.50;9.13;;;26.40;99.90;;;;;;5036845;28;20049;-79
2022/08/24 08:54:14;;;;;;;15.43;11.80;;;26.50;99.90;;;;;;5037560;28;20046;-79
2022/08/24 08:57:13;;;;;;;12.65;9.63;;;26.60;99.90;;;;;;5036898;28;20045;-79
2022/08/24 09:00:09;;;;;;;11.60;10.38;;;26.70;99.90;;;;;;5036910;28;20049;-79
2022/08/24 09:02:50;;;;;;;16.25;10.85;;;26.90;99.90;;;;;;5037301;28;20049;-79
2022/08/24 09:05:50;;;;;;;12.88;8.80;;;26.90;99.90;;;;;;5036436;28;20406;-79
2022/08/24 09:08:30;;;;;;;9.80;7.28;;;27.00;99.90;;;;;;5036591;28;20045;-79
2022/08/24 09:11:04;;;;;;;9.60;7.05;;;27.10;99.90;;;;;;5036530;28;20184;-79
2022/08/24 09:13:50;;;;;;;11.07;5.50;;;27.20;99.90;;;;;;5036661;28;20053;-79
2022/08/24 09:17:09;;;;;;;13.70;8.57;;;27.30;99.90;;;;;;5036566;28;20049;-79
2022/08/24 09:19:58;;;;;;;;;;;27.40;99.90;;;;;;4956597;29;20054;-79
2022/08/24 09:22:24;;;;;;;11.52;7.32;;;27.50;99.90;;;;;;5007912;28;19951;-79
2022/08/24 09:24:53;;;;;;;9.65;6.85;;;27.60;99.90;;;;;;5035316;28;20366;-79
2022/08/24 09:27:38;;;;;;;11.07;5.75;;;27.70;99.90;;;;;;5036200;28;20046;-79
2022/08/24 09:30:12;;;;;;;12.85;7.72;;;27.80;99.90;;;;;;5036573;28;20041;-79
2022/08/24 09:32:56;;;;;;;9.45;6.30;;;27.90;99.90;;;;;;5037380;28;20048;-79
2022/08/24 09:35:51;;;;;;;7.00;5.75;;;27.80;99.90;;;;;;5036207;28;20049;-79
2022/08/24 09:38:43;;;;;;;11.40;5.40;;;27.90;99.90;;;;;;5036578;28;20045;-79
2022/08/24 09:41:08;;;;;;;7.00;4.07;;;27.90;99.90;;;;;;5035165;28;20532;-79
2022/08/24 09:43:52;;;;;;;13.77;4.93;;;27.90;99.90;;;;;;5035486;28;20088;-79
2022/08/24 09:46:39;;;;;;;7.35;5.38;;;28.00;99.90;;;;;;5034771;28;20449;-79
2022/08/24 09:49:56;;;;;;;8.45;5.50;;;28.00;99.90;;;;;;5036115;28;20128;-79
2022/08/24 09:52:49;;;;;;;5.78;4.13;;;28.00;99.90;;;;;;5035976;28;20049;-79
2022/08/24 09:55:34;;;;;;;6.25;2.88;;;28.10;99.90;;;;;;5036075;28;20046;-80
2022/08/24 09:58:06;;;;;;;5.05;2.60;;;28.20;99.90;;;;;;5035910;28;20502;-79
2022/08/24 10:01:04;;;;;;;4.22;2.15;;;28.30;99.90;;;;;;5035777;28;20400;-79
2022/08/24 10:03:48;;;;;;;3.95;1.85;;;28.50;99.90;;;;;;5036187;28;20072;-80
2022/08/24 10:06:13;;;;;;;5.00;2.40;;;28.60;99.90;;;;;;5035455;28;20046;-77
2022/08/24 10:08:56;;;;;;;5.50;2.73;;;28.70;99.90;;;;;;5035600;28;20436;-78
2022/08/24 10:11:30;;;;;;;5.22;2.22;;;28.80;99.90;;;;;;5035273;28;20554;-77
2022/08/24 10:14:32;;;;;;;5.70;2.20;;;28.90;99.90;;;;;;5034226;28;20377;-77
2022/08/24 10:17:24;;;;;;;3.78;1.77;;;28.90;99.40;;;;;;5035415;28;20050;-78
2022/08/24 10:20:03;;;;;;;5.82;2.22;;;29.00;99.70;;;;;;5034733;28;20124;-77
2022/08/24 10:22:53;;;;;;;2.80;1.38;;;29.00;99.90;;;;;;5034565;28;20085;-77
2022/08/24 10:25:39;;;;;;;4.13;2.20;;;29.10;99.10;;;;;;5035324;28;20503;-77
2022/08/24 10:28:42;;;;;;;3.75;1.88;;;29.20;98.00;;;;;;5035053;28;20045;-77
2022/08/24 10:31:32;;;;;;;4.10;1.80;;;29.20;98.80;;;;;;5035062;28;20072;-77
2022/08/24 10:34:25;;;;;;;3.78;1.77;;;29.30;98.90;;;;;;5035237;28;20046;-77
2022/08/24 10:37:24;;;;;;;4.95;1.85;;;29.30;97.50;;;;;;4998227;28;20136;-78
2022/08/24 10:40:18;;;;;;;4.57;1.85;;;29.40;97.80;;;;;;5034790;28;20408;-77
2022/08/24 10:46:20;;;;;;;3.10;1.70;;;29.20;98.20;;;;;;5035112;28;20448;-78
2022/08/24 10:49:23;;;;;;;4.30;1.58;;;29.20;97.70;;;;;;5035394;28;20045;-78
2022/08/24 10:52:16;;;;;;;4.32;2.00;;;29.40;98.70;;;;;;5034955;28;20382;-77
2022/08/24 10:54:42;;;;;;;4.07;2.20;;;29.50;98.30;;;;;;5034563;28;20103;-77
2022/08/24 10:57:27;;;;;;;6.35;1.90;;;29.60;98.70;;;;;;5033618;28;20481;-78
2022/08/24 11:00:10;;;;;;;4.93;1.85;;;29.60;98.10;;;;;;5033571;28;20092;-77
2022/08/24 11:02:38;;;;;;;3.10;1.60;;;29.80;97.60;;;;;;5034532;28;20107;-77
2022/08/24 11:05:08;;;;;;;4.25;2.28;;;29.80;98.10;;;;;;5034376;28;20045;-78
2022/08/24 11:07:34;;;;;;;5.57;2.03;;;29.80;97.70;;;;;;5033081;28;20041;-78
2022/08/24 11:10:05;;;;;;;7.30;2.10;;;29.80;98.10;;;;;;5034005;28;20493;-77
2022/08/24 11:12:39;;;;;;;3.95;1.98;;;29.90;98.10;;;;;;5034341;28;20120;-77
2022/08/24 11:15:16;;;;;;;4.65;2.15;;;30.00;98.30;;;;;;5034408;28;20065;-78
2022/08/24 11:17:58;;;;;;;4.13;1.90;;;30.10;98.00;;;;;;5034069;28;20080;-77
2022/08/24 11:20:39;;;;;;;5.05;1.80;;;30.20;97.30;;;;;;5034529;28;20049;-77
2022/08/24 11:23:14;;;;;;;3.58;1.80;;;30.30;97.50;;;;;;5034182;28;20128;-78
2022/08/24 11:25:53;;;;;;;1.90;1.52;;;30.30;96.70;;;;;;5034208;28;20085;-78
2022/08/24 11:28:46;;;;;;;3.30;1.80;;;30.40;96.50;;;;;;5034082;28;20411;-78
2022/08/24 11:31:33;;;;;;;4.55;1.50;;;30.50;96.20;;;;;;5034073;28;20088;-77
2022/08/24 11:34:02;;;;;;;;;;;30.40;95.70;;;;;;5034465;28;20052;-78
2022/08/24 11:36:32;;;;;;;7.90;1.60;;;30.40;96.40;;;;;;5033857;28;19964;-78
2022/08/24 11:39:18;;;;;;;4.00;1.83;;;30.50;96.70;;;;;;5033260;28;20049;-78
2022/08/24 11:42:00;;;;;;;3.88;1.42;;;30.50;96.20;;;;;;5032903;28;20049;-78
2022/08/24 11:44:37;;;;;;;3.17;1.27;;;30.60;96.60;;;;;;5032810;28;20095;-77
2022/08/24 11:47:24;;;;;;;2.55;1.60;;;30.60;95.60;;;;;;5033798;28;20049;-78
2022/08/24 11:49:56;;;;;;;;;;;30.60;95.70;;;;;;5034751;28;20045;-77
2022/08/24 11:52:36;;;;;;;3.22;1.50;;;30.60;95.00;;;;;;5033733;28;20372;-78
2022/08/24 11:55:11;;;;;;;2.45;1.40;;;30.70;95.40;;;;;;5033923;28;20045;-78
2022/08/24 11:57:58;;;;;;;3.13;1.35;;;30.70;95.40;;;;;;5033849;28;20038;-77
2022/08/24 12:00:29;;;;;;;3.35;1.25;;;30.70;95.70;;;;;;5033011;28;20060;-78
2022/08/24 12:03:36;;;;;;;2.65;1.40;;;30.80;95.90;;;;;;5033878;28;20477;-79
2022/08/24 12:06:25;;;;;;;5.50;1.55;;;30.90;95.10;;;;;;5033741;28;20053;-78
2022/08/24 12:09:11;;;;;;;3.47;1.77;;;31.10;95.40;;;;;;5036635;28;20057;-78
2022/08/24 12:12:05;;;;;;;2.73;1.40;;;31.10;93.90;;;;;;5037724;28;20045;-78
2022/08/24 12:14:50;;;;;;;4.07;1.40;;;31.20;94.60;;;;;;5036334;28;20339;-78
2022/08/24 12:17:27;;;;;;;3.78;1.50;;;31.20;95.10;;;;;;5037674;28;20072;-78
2022/08/24 12:20:13;;;;;;;2.75;1.40;;;31.30;94.40;;;;;;5037358;28;20496;-78
2022/08/24 12:22:41;;;;;;;3.15;1.17;;;31.40;93.40;;;;;;5036255;28;20041;-79
2022/08/24 12:26:00;;;;;;;3.90;1.40;;;31.40;93.80;;;;;;5037415;28;20049;-79
2022/08/24 12:27:56;;;;;;;2.90;1.05;;;31.40;93.40;;;;;;5036115;28;20487;-78
2022/08/24 12:30:21;;;;;;;1.98;1.02;;;31.50;93.70;;;;;;5037281;28;20081;-78
2022/08/24 12:32:52;;;;;;;4.35;0.88;;;31.60;93.90;;;;;;5037335;28;20041;-78
2022/08/24 12:35:27;;;;;;;3.22;0.90;;;31.60;92.60;;;;;;5037758;28;20060;-78
2022/08/24 12:37:52;;;;;;;2.30;1.00;;;31.60;92.10;;;;;;5037171;28;20084;-78
2022/08/24 12:40:25;;;;;;;4.45;1.00;;;31.50;92.10;;;;;;5037037;28;20045;-78
2022/08/24 12:43:03;;;;;;;2.83;1.08;;;31.40;91.90;;;;;;5035815;28;20041;-78
2022/08/24 12:45:28;;;;;;;3.65;0.90;;;31.50;92.00;;;;;;5036914;28;20076;-78
2022/08/24 12:48:06;;;;;;;3.35;0.93;;;31.60;92.70;;;;;;5036878;28;20064;-78
2022/08/24 12:50:50;;;;;;;2.15;0.90;;;31.70;92.50;;;;;;5037237;28;20058;-79
2022/08/24 12:53:46;;;;;;;2.05;0.98;;;31.80;92.00;;;;;;5036747;28;20481;-78
2022/08/24 12:56:16;;;;;;;2.97;0.95;;;31.90;91.60;;;;;;5036834;28;20057;-79
2022/08/24 12:59:15;;;;;;;4.07;0.80;;;31.90;91.70;;;;;;5035616;28;20053;-78
2022/08/24 13:01:55;;;;;;;2.80;0.80;;;31.80;91.40;;;;;;5036876;28;20107;-78
2022/08/24 13:04:42;;;;;;;1.63;0.85;;;31.70;90.80;;;;;;5036614;28;20049;-78
2022/08/24 13:07:24;;;;;;;2.30;0.70;;;31.80;90.60;;;;;;5037025;28;20400;-78
2022/08/24 13:09:59;;;;;;;1.83;0.80;;;31.90;91.30;;;;;;5036701;28;20043;-79